createdAt,value
2022-10-23T00:01:46.203Z,14.80
2022-10-23T00:04:21.935Z,13.00
2022-10-23T00:06:50.258Z,13.70
2022-10-23T00:09:23.797Z,16.30
2022-10-23T00:11:53.369Z,11.40
2022-10-23T00:14:24.463Z,11.40
2022-10-23T00:16:52.797Z,15.10
2022-10-23T00:19:21.094Z,13.50
2022-10-23T00:21:49.491Z,13.10
2022-10-23T00:24:17.937Z,12.40
2022-10-23T00:26:46.160Z,12.70
2022-10-23T00:29:14.426Z,12.10
2022-10-23T00:31:42.690Z,16.50
2022-10-23T00:34:11.121Z,13.80
2022-10-23T00:36:39.453Z,13.70
2022-10-23T00:39:07.714Z,13.00
2022-10-23T00:41:36.506Z,19.60
2022-10-23T00:44:30.756Z,11.40
2022-10-23T00:46:59.938Z,13.00
2022-10-23T00:49:28.524Z,12.80
2022-10-23T00:52:02.081Z,13.10
2022-10-23T00:54:37.290Z,14.60
2022-10-23T00:57:11.546Z,14.00
2022-10-23T00:59:39.958Z,14.20
2022-10-23T01:02:09.371Z,14.90
2022-10-23T01:04:38.454Z,13.10
2022-10-23T01:07:17.644Z,14.70
2022-10-23T01:10:08.629Z,15.70
2022-10-23T01:13:20.872Z,16.90
2022-10-23T01:16:33.806Z,14.10
2022-10-23T01:19:20.437Z,12.30
2022-10-23T01:22:10.307Z,15.10
2022-10-23T01:25:29.882Z,14.90
2022-10-23T01:28:09.441Z,13.60
2022-10-23T01:30:42.973Z,14.30
2022-10-23T01:33:18.362Z,15.40
2022-10-23T01:35:56.792Z,15.90
2022-10-23T01:38:56.339Z,12.80
2022-10-23T01:41:36.132Z,12.70
2022-10-23T01:44:11.030Z,12.60
2022-10-23T01:46:40.525Z,12.80
2022-10-23T01:49:13.070Z,12.30
2022-10-23T01:52:01.677Z,12.90
2022-10-23T01:54:34.255Z,14.10
2022-10-23T01:57:04.576Z,12.70
2022-10-23T01:59:39.689Z,13.20
2022-10-23T02:02:11.468Z,12.40
2022-10-23T02:04:57.684Z,14.60
2022-10-23T02:07:26.484Z,16.00
2022-10-23T02:09:54.755Z,14.90
2022-10-23T02:12:49.757Z,12.70
2022-10-23T02:15:46.639Z,12.10
2022-10-23T02:18:50.552Z,15.80
2022-10-23T02:22:09.617Z,12.30
2022-10-23T02:25:23.174Z,13.70
2022-10-23T02:27:55.211Z,17.30
2022-10-23T02:30:23.584Z,14.50
2022-10-23T02:32:54.957Z,16.60
2022-10-23T02:35:25.341Z,15.00
2022-10-23T02:38:00.138Z,16.70
2022-10-23T02:40:38.899Z,17.10
2022-10-23T02:43:15.779Z,15.00
2022-10-23T02:46:16.305Z,18.40
2022-10-23T02:48:58.681Z,17.50
2022-10-23T02:52:07.745Z,22.10
2022-10-23T02:55:18.250Z,22.10
2022-10-23T02:58:00.810Z,19.80
2022-10-23T03:00:32.921Z,19.40
2022-10-23T03:03:10.110Z,22.10
2022-10-23T03:05:41.558Z,24.00
2022-10-23T03:08:11.885Z,22.50
2022-10-23T03:10:41.907Z,19.20
2022-10-23T03:13:11.643Z,22.90
2022-10-23T03:15:39.850Z,21.00
2022-10-23T03:18:08.105Z,23.30
2022-10-23T03:20:36.446Z,24.10
2022-10-23T03:23:04.696Z,18.80
2022-10-23T03:25:32.886Z,15.70
2022-10-23T03:28:01.194Z,19.00
2022-10-23T03:30:29.937Z,17.80
2022-10-23T03:32:58.381Z,17.20
2022-10-23T03:35:26.711Z,21.70
2022-10-23T03:37:54.964Z,19.50
2022-10-23T03:40:23.188Z,21.40
2022-10-23T03:42:51.490Z,20.40
2022-10-23T03:45:19.981Z,17.80
2022-10-23T03:47:48.777Z,18.10
2022-10-23T03:50:18.430Z,17.50
2022-10-23T03:52:46.674Z,23.60
2022-10-23T03:55:14.890Z,17.50
2022-10-23T03:57:43.267Z,16.20
2022-10-23T04:00:12.311Z,15.10
2022-10-23T04:02:40.697Z,15.60
2022-10-23T04:05:09.275Z,18.40
2022-10-23T04:07:37.881Z,16.50
2022-10-23T04:10:07.233Z,22.80
2022-10-23T04:12:35.526Z,17.60
2022-10-23T04:15:04.505Z,15.40
2022-10-23T04:17:32.720Z,13.80
2022-10-23T04:20:01.005Z,14.80
2022-10-23T04:22:29.226Z,14.50
2022-10-23T04:24:57.419Z,13.50
2022-10-23T04:27:25.747Z,16.80
2022-10-23T04:29:56.786Z,15.90
2022-10-23T04:32:27.335Z,14.50
2022-10-23T04:34:55.609Z,15.30
2022-10-23T04:37:23.870Z,19.30
2022-10-23T04:39:52.092Z,12.10
2022-10-23T04:42:20.668Z,15.40
2022-10-23T04:44:48.936Z,12.90
2022-10-23T04:47:17.168Z,12.20
2022-10-23T04:49:45.428Z,16.00
2022-10-23T04:52:13.669Z,14.10
2022-10-23T04:54:42.000Z,13.00
2022-10-23T04:57:11.060Z,12.70
2022-10-23T04:59:39.687Z,13.60
2022-10-23T05:02:08.327Z,13.00
2022-10-23T05:04:36.567Z,16.80
2022-10-23T05:07:04.751Z,13.70
2022-10-23T05:09:33.188Z,11.60
2022-10-23T05:12:01.928Z,12.00
2022-10-23T05:14:30.738Z,13.00
2022-10-23T05:17:13.109Z,13.30
2022-10-23T05:19:50.399Z,14.10
2022-10-23T05:22:20.826Z,14.60
2022-10-23T05:24:50.606Z,13.20
2022-10-23T05:27:19.354Z,13.70
2022-10-23T05:29:47.627Z,16.10
2022-10-23T05:32:16.953Z,13.90
2022-10-23T05:34:45.697Z,12.30
2022-10-23T05:37:16.777Z,11.40
2022-10-23T05:39:45.051Z,11.20
2022-10-23T05:42:13.415Z,13.70
2022-10-23T05:44:41.742Z,12.10
2022-10-23T05:47:10.034Z,12.70
2022-10-23T05:49:38.230Z,13.50
2022-10-23T05:52:06.530Z,12.30
2022-10-23T05:54:34.749Z,14.00
2022-10-23T05:57:03.067Z,16.60
2022-10-23T05:59:31.406Z,13.70
2022-10-23T06:01:59.895Z,11.40
2022-10-23T06:04:28.430Z,11.10
2022-10-23T06:06:56.657Z,11.50
2022-10-23T06:09:24.906Z,12.30
2022-10-23T06:11:53.235Z,11.30
2022-10-23T06:14:21.499Z,13.60
2022-10-23T06:16:49.805Z,11.00
2022-10-23T06:19:18.422Z,17.30
2022-10-23T06:21:46.584Z,14.20
2022-10-23T06:24:15.062Z,14.90
2022-10-23T06:26:43.254Z,14.60
2022-10-23T06:29:11.713Z,19.40
2022-10-23T06:31:39.950Z,15.10
2022-10-23T06:34:11.926Z,14.20
2022-10-23T06:36:40.323Z,13.80
2022-10-23T06:39:10.176Z,14.60
2022-10-23T06:41:39.876Z,13.20
2022-10-23T06:44:10.202Z,14.70
2022-10-23T06:46:38.504Z,15.00
2022-10-23T06:49:06.920Z,16.50
2022-10-23T06:51:35.159Z,18.40
2022-10-23T06:54:03.530Z,16.50
2022-10-23T06:56:31.725Z,15.20
2022-10-23T06:59:00.004Z,14.90
2022-10-23T07:01:28.432Z,12.90
2022-10-23T07:03:56.888Z,15.60
2022-10-23T07:06:25.177Z,16.50
2022-10-23T07:08:53.468Z,14.90
2022-10-23T07:11:21.705Z,14.70
2022-10-23T07:13:49.915Z,14.90
2022-10-23T07:16:22.025Z,14.20
2022-10-23T07:18:59.719Z,15.40
2022-10-23T07:21:31.422Z,15.20
2022-10-23T07:23:59.612Z,14.80
2022-10-23T07:26:28.718Z,17.60
2022-10-23T07:28:56.925Z,16.30
2022-10-23T07:31:28.151Z,15.80
2022-10-23T07:33:56.740Z,14.60
2022-10-23T07:36:25.131Z,14.90
2022-10-23T07:38:53.492Z,13.80
2022-10-23T07:41:21.874Z,13.50
2022-10-23T07:43:50.133Z,12.30
2022-10-23T07:46:18.390Z,16.00
2022-10-23T07:48:46.602Z,15.60
2022-10-23T07:51:16.463Z,14.20
2022-10-23T07:53:45.629Z,13.30
2022-10-23T07:56:21.072Z,13.60
2022-10-23T07:58:53.786Z,13.30
2022-10-23T08:01:30.950Z,12.70
2022-10-23T08:04:00.936Z,12.20
2022-10-23T08:06:29.897Z,11.40
2022-10-23T08:08:59.916Z,11.10
2022-10-23T08:11:35.294Z,12.70
2022-10-23T08:14:06.003Z,12.10
2022-10-23T08:16:37.958Z,11.20
2022-10-23T08:19:08.139Z,12.20
2022-10-23T08:21:36.555Z,11.30
2022-10-23T08:24:05.489Z,8.10
2022-10-23T08:26:33.862Z,10.10
2022-10-23T08:29:02.089Z,10.30
2022-10-23T08:31:30.453Z,9.60
2022-10-23T08:33:58.741Z,12.80
2022-10-23T08:36:28.835Z,10.00
2022-10-23T08:38:58.179Z,8.90
2022-10-23T08:41:44.285Z,10.20
2022-10-23T08:44:57.232Z,10.20
2022-10-23T08:47:43.102Z,13.60
2022-10-23T08:50:42.576Z,9.60
2022-10-23T08:53:45.580Z,7.50
2022-10-23T08:56:21.407Z,7.60
2022-10-23T08:59:28.226Z,7.70
2022-10-23T09:02:11.724Z,7.10
2022-10-23T09:04:42.631Z,6.90
2022-10-23T09:07:52.622Z,7.10
2022-10-23T09:10:32.830Z,5.90
2022-10-23T09:13:31.314Z,4.80
2022-10-23T09:16:25.415Z,6.20
2022-10-23T09:18:54.948Z,5.20
2022-10-23T09:21:30.235Z,4.80
2022-10-23T09:23:58.449Z,5.40
2022-10-23T09:26:26.715Z,5.50
2022-10-23T09:29:14.258Z,6.20
2022-10-23T09:31:57.988Z,3.80
2022-10-23T09:34:30.035Z,4.90
2022-10-23T09:37:17.609Z,5.20
2022-10-23T09:39:46.237Z,5.50
2022-10-23T09:42:26.016Z,4.50
2022-10-23T09:44:55.791Z,4.50
2022-10-23T09:47:26.073Z,5.10
2022-10-23T09:49:57.103Z,4.80
2022-10-23T09:52:38.953Z,4.00
2022-10-23T09:55:25.148Z,4.30
2022-10-23T09:57:54.282Z,5.40
2022-10-23T10:00:28.002Z,5.00
2022-10-23T10:03:06.632Z,4.80
2022-10-23T10:05:41.508Z,4.10
2022-10-23T10:08:40.601Z,4.00
2022-10-23T10:11:30.631Z,3.50
2022-10-23T10:14:47.018Z,3.40
2022-10-23T10:20:12.784Z,2.60
2022-10-23T10:22:58.577Z,2.70
2022-10-23T10:25:49.752Z,2.70
2022-10-23T10:28:34.199Z,2.90
2022-10-23T10:31:29.895Z,3.20
2022-10-23T10:34:22.390Z,3.30
2022-10-23T10:37:16.945Z,3.90
2022-10-23T10:40:00.096Z,3.00
2022-10-23T10:43:13.532Z,7.00
2022-10-23T10:45:53.300Z,4.20
2022-10-23T10:48:59.477Z,4.00
2022-10-23T10:51:49.122Z,3.10
2022-10-23T10:54:43.814Z,3.40
2022-10-23T10:57:36.587Z,3.40
2022-10-23T11:00:28.565Z,6.90
2022-10-23T11:03:28.891Z,3.70
2022-10-23T11:08:49.964Z,3.70
2022-10-23T11:11:37.707Z,3.60
2022-10-23T11:14:14.319Z,3.30
2022-10-23T11:16:48.110Z,3.00
2022-10-23T11:19:34.444Z,4.50
2022-10-23T11:22:28.659Z,3.40
2022-10-23T11:25:34.012Z,3.60
2022-10-23T11:28:35.114Z,3.00
2022-10-23T11:31:11.919Z,4.00
2022-10-23T11:34:51.903Z,3.60
2022-10-23T11:37:22.453Z,2.90
2022-10-23T11:40:23.913Z,3.10
2022-10-23T11:42:52.720Z,3.10
2022-10-23T11:45:37.765Z,3.00
2022-10-23T11:48:43.663Z,5.60
2022-10-23T11:54:13.590Z,3.20
2022-10-23T11:57:11.646Z,4.30
2022-10-23T11:59:49.153Z,3.50
2022-10-23T12:02:37.627Z,4.80
2022-10-23T12:05:07.265Z,5.00
2022-10-23T12:07:41.926Z,3.20
2022-10-23T12:10:34.419Z,3.70
2022-10-23T12:13:38.903Z,4.30
2022-10-23T12:16:07.615Z,5.60
2022-10-23T12:18:54.161Z,3.50
2022-10-23T12:21:28.427Z,4.50
2022-10-23T12:24:31.640Z,5.20
2022-10-23T12:27:29.837Z,4.10
2022-10-23T12:30:04.084Z,4.10
2022-10-23T12:33:26.790Z,3.40
2022-10-23T12:36:47.345Z,3.90
2022-10-23T12:39:33.622Z,5.30
2022-10-23T12:42:02.538Z,5.60
2022-10-23T12:44:31.669Z,3.40
2022-10-23T12:47:02.752Z,3.10
2022-10-23T12:49:34.199Z,3.80
2022-10-23T12:52:17.002Z,3.80
2022-10-23T12:54:45.467Z,2.80
2022-10-23T12:57:29.278Z,3.80
2022-10-23T13:00:06.355Z,4.40
2022-10-23T13:02:35.682Z,3.60
2022-10-23T13:05:09.051Z,4.60
2022-10-23T13:07:44.585Z,4.10
2022-10-23T13:10:19.938Z,3.30
2022-10-23T13:13:04.648Z,4.60
2022-10-23T13:15:43.284Z,3.10
2022-10-23T13:18:14.919Z,4.00
2022-10-23T13:20:57.471Z,3.40
2022-10-23T13:23:36.017Z,3.10
2022-10-23T13:26:24.311Z,3.30
2022-10-23T13:28:53.026Z,3.30
2022-10-23T13:31:21.354Z,4.30
2022-10-23T13:34:14.239Z,3.20
2022-10-23T13:36:54.903Z,3.20
2022-10-23T13:39:30.859Z,5.90
2022-10-23T13:42:11.420Z,4.00
2022-10-23T13:44:41.059Z,21.70
2022-10-23T13:47:13.359Z,103.90
2022-10-23T13:49:41.641Z,165.20
2022-10-23T13:52:19.472Z,29.20
2022-10-23T13:54:47.810Z,13.10
2022-10-23T13:57:16.478Z,5.60
2022-10-23T13:59:45.560Z,5.20
2022-10-23T14:02:23.628Z,3.50
2022-10-23T14:04:52.159Z,4.00
2022-10-23T14:07:20.431Z,9.90
2022-10-23T14:09:50.572Z,6.50
2022-10-23T14:12:19.159Z,5.60
2022-10-23T14:14:52.202Z,10.70
2022-10-23T14:17:21.486Z,4.50
2022-10-23T14:19:50.357Z,4.10
2022-10-23T14:22:18.583Z,4.20
2022-10-23T14:24:46.841Z,5.40
2022-10-23T14:27:15.170Z,4.30
2022-10-23T14:29:43.460Z,3.70
2022-10-23T14:32:12.074Z,43.00
2022-10-23T14:34:43.088Z,27.50
2022-10-23T14:37:11.351Z,41.50
2022-10-23T14:39:39.557Z,137.10
2022-10-23T14:42:07.851Z,86.00
2022-10-23T14:44:36.180Z,14.30
2022-10-23T14:47:04.832Z,10.60
2022-10-23T14:49:35.762Z,21.10
2022-10-23T14:52:04.326Z,22.50
2022-10-23T14:54:34.564Z,14.60
2022-10-23T14:57:03.868Z,8.60
2022-10-23T14:59:32.276Z,6.80
2022-10-23T15:02:00.684Z,8.80
2022-10-23T15:04:28.951Z,6.30
2022-10-23T15:06:57.282Z,5.70
2022-10-23T15:09:26.079Z,6.60
2022-10-23T15:11:54.454Z,5.30
2022-10-23T15:14:22.684Z,6.80
2022-10-23T15:16:51.351Z,5.10
2022-10-23T15:19:19.852Z,9.40
2022-10-23T15:21:48.695Z,5.00
2022-10-23T15:24:17.550Z,9.30
2022-10-23T15:26:46.026Z,8.70
2022-10-23T15:29:14.961Z,5.50
2022-10-23T15:31:54.713Z,6.40
2022-10-23T15:34:27.081Z,5.10
2022-10-23T15:36:57.468Z,6.40
2022-10-23T15:39:33.756Z,5.90
2022-10-23T15:42:06.083Z,6.60
2022-10-23T15:44:35.136Z,7.30
2022-10-23T15:47:03.790Z,7.00
2022-10-23T15:49:32.719Z,6.50
2022-10-23T15:52:02.398Z,9.20
2022-10-23T15:54:32.935Z,7.30
2022-10-23T15:57:02.564Z,7.30
2022-10-23T15:59:32.259Z,10.60
2022-10-23T16:02:00.985Z,17.20
2022-10-23T16:04:29.986Z,7.00
2022-10-23T16:06:58.282Z,9.20
2022-10-23T16:09:26.610Z,7.40
2022-10-23T16:11:54.828Z,5.60
2022-10-23T16:14:23.132Z,5.30
2022-10-23T16:16:51.435Z,6.00
2022-10-23T16:19:19.766Z,5.10
2022-10-23T16:21:48.127Z,7.30
2022-10-23T16:24:16.409Z,6.40
2022-10-23T16:26:50.219Z,7.00
2022-10-23T16:29:24.414Z,6.40
2022-10-23T16:31:54.420Z,8.70
2022-10-23T16:34:23.305Z,5.70
2022-10-23T16:36:51.593Z,8.70
2022-10-23T16:39:20.876Z,5.90
2022-10-23T16:41:49.187Z,9.80
2022-10-23T16:44:18.227Z,7.50
2022-10-23T16:46:46.499Z,8.00
2022-10-23T16:49:14.836Z,8.90
2022-10-23T16:51:43.094Z,8.60
2022-10-23T16:54:11.458Z,7.60
2022-10-23T16:56:40.218Z,9.20
2022-10-23T16:59:09.911Z,14.70
2022-10-23T17:01:38.491Z,10.00
2022-10-23T17:04:08.374Z,11.30
2022-10-23T17:06:37.551Z,12.00
2022-10-23T17:09:06.361Z,17.50
2022-10-23T17:11:38.908Z,19.50
2022-10-23T17:14:12.095Z,22.50
2022-10-23T17:16:50.412Z,20.00
2022-10-23T17:22:12.531Z,19.00
2022-10-23T17:24:44.225Z,15.50
2022-10-23T17:27:14.766Z,18.80
2022-10-23T17:29:43.100Z,14.20
2022-10-23T17:32:11.369Z,10.70
2022-10-23T17:34:39.720Z,12.10
2022-10-23T17:37:09.048Z,13.10
2022-10-23T17:39:37.431Z,12.50
2022-10-23T17:42:05.730Z,13.10
2022-10-23T17:44:34.036Z,18.30
2022-10-23T17:47:02.353Z,13.80
2022-10-23T17:49:30.718Z,16.40
2022-10-23T17:51:58.974Z,19.10
2022-10-23T17:54:28.024Z,18.70
2022-10-23T17:56:57.086Z,19.30
2022-10-23T17:59:25.336Z,24.00
2022-10-23T18:01:53.890Z,21.90
2022-10-23T18:04:22.433Z,20.60
2022-10-23T18:06:53.637Z,20.70
2022-10-23T18:09:23.105Z,18.30
2022-10-23T18:11:51.798Z,17.20
2022-10-23T18:14:21.708Z,16.90
2022-10-23T18:16:52.556Z,17.40
2022-10-23T18:19:21.320Z,15.80
2022-10-23T18:21:49.659Z,16.60
2022-10-23T18:24:19.198Z,20.40
2022-10-23T18:26:48.391Z,18.40
2022-10-23T18:29:17.992Z,21.20
2022-10-23T18:31:48.429Z,19.40
2022-10-23T18:34:21.703Z,21.20
2022-10-23T18:36:52.408Z,25.80
2022-10-23T18:39:24.749Z,26.10
2022-10-23T18:41:56.944Z,23.20
2022-10-23T18:44:28.989Z,24.20
2022-10-23T18:46:59.438Z,23.10
2022-10-23T18:49:28.393Z,29.60
2022-10-23T18:51:58.343Z,36.80
2022-10-23T18:54:27.284Z,38.10
2022-10-23T18:56:55.730Z,37.00
2022-10-23T18:59:24.498Z,33.40
2022-10-23T19:01:53.043Z,26.00
2022-10-23T19:04:21.504Z,32.40
2022-10-23T19:06:50.809Z,25.50
2022-10-23T19:09:20.193Z,22.60
2022-10-23T19:11:49.255Z,22.20
2022-10-23T19:14:17.639Z,21.70
2022-10-23T19:16:59.835Z,20.50
2022-10-23T19:19:41.508Z,19.40
2022-10-23T19:22:12.593Z,27.90
2022-10-23T19:24:58.364Z,17.90
2022-10-23T19:27:27.078Z,18.60
2022-10-23T19:29:56.390Z,16.20
2022-10-23T19:32:24.696Z,18.20
2022-10-23T19:34:52.954Z,13.00
2022-10-23T19:37:21.196Z,12.90
2022-10-23T19:39:49.410Z,14.00
2022-10-23T19:42:17.669Z,17.50
2022-10-23T19:44:45.884Z,21.00
2022-10-23T19:47:14.168Z,17.90
2022-10-23T19:49:42.378Z,26.60
2022-10-23T19:52:10.902Z,27.30
2022-10-23T19:54:41.087Z,23.40
2022-10-23T19:57:09.475Z,27.90
2022-10-23T19:59:37.892Z,41.40
2022-10-23T20:02:06.514Z,52.10
2022-10-23T20:04:35.436Z,40.70
2022-10-23T20:07:03.689Z,26.10
2022-10-23T20:09:31.959Z,24.80
2022-10-23T20:12:00.780Z,19.30
2022-10-23T20:14:29.575Z,19.30
2022-10-23T20:16:59.732Z,20.40
2022-10-23T20:19:28.563Z,15.90
2022-10-23T20:21:56.949Z,15.80
2022-10-23T20:24:25.121Z,16.20
2022-10-23T20:26:55.820Z,17.90
2022-10-23T20:29:25.037Z,15.60
2022-10-23T20:31:53.341Z,17.70
2022-10-23T20:34:21.733Z,20.50
2022-10-23T20:36:50.183Z,19.50
2022-10-23T20:39:26.932Z,24.70
2022-10-23T20:41:56.689Z,17.80
2022-10-23T20:44:24.911Z,14.20
2022-10-23T20:46:53.403Z,16.20
2022-10-23T20:49:22.868Z,14.10
2022-10-23T20:51:55.661Z,14.50
2022-10-23T20:54:27.546Z,13.40
2022-10-23T20:56:57.050Z,15.30
2022-10-23T20:59:25.614Z,13.30
2022-10-23T21:01:56.313Z,11.70
2022-10-23T21:04:27.991Z,14.40
2022-10-23T21:07:09.406Z,12.00
2022-10-23T21:09:39.941Z,17.40
2022-10-23T21:12:09.010Z,14.30
2022-10-23T21:14:37.370Z,13.60
2022-10-23T21:17:05.829Z,13.90
2022-10-23T21:19:34.441Z,14.80
2022-10-23T21:22:02.676Z,16.30
2022-10-23T21:24:31.175Z,17.20
2022-10-23T21:26:59.433Z,19.10
2022-10-23T21:29:27.710Z,16.20
2022-10-23T21:31:59.739Z,18.00
2022-10-23T21:34:29.047Z,23.50
2022-10-23T21:37:14.100Z,18.70
2022-10-23T21:39:44.494Z,17.80
2022-10-23T21:42:14.477Z,19.50
2022-10-23T21:44:42.906Z,17.40
2022-10-23T21:47:11.430Z,19.70
2022-10-23T21:49:39.687Z,18.00
2022-10-23T21:52:07.997Z,18.60
2022-10-23T21:54:36.318Z,18.30
2022-10-23T21:57:04.576Z,20.00
2022-10-23T21:59:35.923Z,19.30
2022-10-23T22:02:04.820Z,20.70
2022-10-23T22:04:33.287Z,21.80
2022-10-23T22:07:03.041Z,20.60
2022-10-23T22:09:32.900Z,19.30
2022-10-23T22:12:01.642Z,22.50
2022-10-23T22:14:29.975Z,22.00
2022-10-23T22:16:58.839Z,22.10
2022-10-23T22:19:27.178Z,20.40
2022-10-23T22:21:55.544Z,19.10
2022-10-23T22:24:24.002Z,23.60
2022-10-23T22:26:56.148Z,20.40
2022-10-23T22:29:28.549Z,20.40
2022-10-23T22:31:58.128Z,19.00
2022-10-23T22:37:18.324Z,18.80
2022-10-23T22:39:50.454Z,19.50
2022-10-23T22:42:20.262Z,20.60
2022-10-23T22:44:48.529Z,16.90
2022-10-23T22:47:16.810Z,16.70
2022-10-23T22:49:45.060Z,18.50
2022-10-23T22:52:13.467Z,17.80
2022-10-23T22:54:41.713Z,22.80
2022-10-23T22:57:09.915Z,19.10
2022-10-23T22:59:38.165Z,17.10
2022-10-23T23:02:06.692Z,17.40
2022-10-23T23:04:38.864Z,16.70
2022-10-23T23:07:10.923Z,16.70
2022-10-23T23:09:43.802Z,16.90
2022-10-23T23:12:14.455Z,17.70
2022-10-23T23:14:43.038Z,16.60
2022-10-23T23:17:11.834Z,15.90
2022-10-23T23:19:40.632Z,18.20
2022-10-23T23:22:09.137Z,15.00
2022-10-23T23:24:38.992Z,19.30
2022-10-23T23:27:07.367Z,15.30
2022-10-23T23:29:35.564Z,14.30
2022-10-23T23:32:06.132Z,15.70
2022-10-23T23:34:34.491Z,13.20
2022-10-23T23:37:02.710Z,14.00
2022-10-23T23:39:31.018Z,15.70
2022-10-23T23:41:59.269Z,13.60
2022-10-23T23:44:27.535Z,14.10
2022-10-23T23:46:56.014Z,12.60
2022-10-23T23:49:24.419Z,14.20
2022-10-23T23:51:52.686Z,13.10
2022-10-23T23:54:20.909Z,14.90
2022-10-23T23:56:49.160Z,15.90
2022-10-23T23:59:17.412Z,13.80
